Effingham, IL

6:35 AM CDT on April 23, 2017 (GMT -0500)
Effingham

Weather History for K1H2 - March, 2014

Change the Weather History Date:

Wednesday, March 12, 2014

  Actual Average (KMTO) Record (KMTO)
Temperature  
Mean Temperature 38 °F -  
Max Temperature 41 °F 49 °F 78 °F (1990)
Min Temperature 27 °F 31 °F 3 °F (1960)
Degree Days  
Heating Degree Days 27    
Moisture  
Dew Point 29 °F    
Average Humidity 78    
Maximum Humidity 90    
Minimum Humidity 59    
Precipitation  
Precipitation 0.35 in - - ()
Sea Level Pressure  
Sea Level Pressure 29.84 in    
Wind  
Wind Speed 15 mph (NNW)    
Max Wind Speed 28 mph    
Max Gust Speed 39 mph    
Visibility 8 miles    
Events Rain , Snow , Thunderstorm    
Averages and records for this station are not official NWS values.
T = Trace of Precipitation, MM = Missing Value Source: NWS Daily Summary

Daily Weather History Graph

Daily Weather History Graph

Search for Another Location

Airport or City:

Trip Planner

Search our weather history database for the weather conditions in past years. The results will help you decide how hot, cold, wet, or windy it might be!

Date:

Astronomy

Mar. 12, 2014 Rise Set
Actual Time 7:10 AM CDT 6:58 PM CDT
Civil Twilight 6:43 AM CDT 7:24 PM CDT
Nautical Twilight 6:12 AM CDT 7:55 PM CDT
Astronomical Twilight 5:41 AM CDT 8:27 PM CDT
Moon 3:29 PM CDT (3/12) 4:40 AM CDT (3/12)
Length of Visible Light 12h 41m
Length of Day
11h 48m
Waxing Gibbous, 85% of the Moon is Illuminated
Mar 12
Waxing Gibbous
Mar 16
Full
Mar 23
Last Quarter
Mar 30
New
Apr 7
First Quarter

Hourly Weather History & Observations

Time (CDT) Temp. Windchill Dew Point Humidity Pressure Visibility Wind Dir Wind Speed Gust Speed Precip Events Conditions
12:15 AM 49.6 °F - 43.9 °F 81% 29.44 in 3.0 mi North 10.4 mph 21.9 mph 0.03 in Rain , Thunderstorm Heavy Thunderstorms and Rain
12:35 AM 44.8 °F 37.4 °F 40.1 °F 84% 29.47 in 5.0 mi NNW 17.3 mph 26.5 mph 0.04 in Rain , Thunderstorm Light Thunderstorms and Rain
12:55 AM 41.9 °F 35.0 °F 37.8 °F 85% 29.45 in - NNE 12.7 mph 20.7 mph 0.04 in Thunderstorm Overcast
1:15 AM 41.0 °F 35.2 °F 37.8 °F 88% 29.44 in - NNE 9.2 mph 16.1 mph 0.01 in Thunderstorm Thunderstorm
1:35 AM 40.5 °F 35.1 °F 37.0 °F 88% 29.43 in - North 8.1 mph - 0.07 in   Overcast
1:55 AM 40.3 °F 33.4 °F 37.4 °F 89% 29.46 in - NNW 11.5 mph 16.1 mph 0.11 in   Overcast
2:15 AM 40.1 °F 32.7 °F 37.0 °F 89% 29.43 in 5.0 mi North 12.7 mph 20.7 mph N/A Rain Light Rain
2:35 AM 39.6 °F 33.0 °F 36.5 °F 89% 29.41 in 7.0 mi NNE 10.4 mph 19.6 mph N/A   Overcast
2:55 AM 39.7 °F 29.7 °F 36.7 °F 89% 29.48 in 5.0 mi NW 21.9 mph 32.2 mph 0.01 in Rain Light Rain
3:15 AM 39.7 °F 30.0 °F 36.7 °F 89% 29.49 in - NW 20.7 mph 25.3 mph 0.09 in Thunderstorm Thunderstorm
3:35 AM 39.0 °F 28.8 °F 35.8 °F 88% 29.49 in - NNW 21.9 mph 28.8 mph 0.16 in   Overcast
3:55 AM 38.1 °F 27.9 °F 34.5 °F 87% 29.49 in - NNW 20.7 mph 35.7 mph 0.18 in   Overcast
4:15 AM 37.9 °F 27.1 °F 33.4 °F 84% 29.50 in 10.0 mi North 23.0 mph 31.1 mph N/A   Overcast
4:35 AM 37.2 °F 26.1 °F 32.4 °F 83% 29.53 in - North 23.0 mph 32.2 mph N/A   Overcast
4:55 AM 37.4 °F 26.6 °F 32.5 °F 83% 29.54 in - North 21.9 mph 33.4 mph N/A   Overcast
5:15 AM 36.9 °F 25.6 °F 32.4 °F 84% 29.55 in - North 23.0 mph 33.4 mph N/A   Overcast
5:35 AM 36.5 °F 25.7 °F 32.0 °F 84% 29.57 in - North 20.7 mph 33.4 mph N/A   Overcast
5:55 AM 36.5 °F 25.7 °F 32.0 °F 84% 29.61 in - NNW 20.7 mph 31.1 mph N/A   Overcast
6:15 AM 36.0 °F 23.5 °F 31.6 °F 84% 29.65 in - NNW 27.6 mph 39.1 mph N/A   Overcast
6:35 AM 35.1 °F 23.5 °F 31.3 °F 86% 29.67 in - NNW 21.9 mph 31.1 mph N/A   Overcast
6:55 AM 34.9 °F 23.9 °F 31.1 °F 86% 29.69 in - NNW 19.6 mph 31.1 mph N/A   Overcast
7:15 AM 34.2 °F 24.0 °F 31.1 °F 89% 29.71 in - NNW 16.1 mph 27.6 mph N/A   Overcast
7:35 AM 33.8 °F 24.3 °F 31.1 °F 90% 29.73 in - NNW 13.8 mph 25.3 mph 0.01 in   Overcast
7:55 AM 33.8 °F 22.8 °F 31.1 °F 90% 29.74 in - NNW 18.4 mph 24.2 mph 0.01 in   Overcast
8:15 AM 34.0 °F 22.7 °F 31.3 °F 90% 29.76 in - NNW 19.6 mph 25.3 mph N/A   Overcast
8:35 AM 34.0 °F 23.4 °F 30.9 °F 89% 29.77 in - NNW 17.3 mph 24.2 mph N/A   Overcast
8:55 AM 34.2 °F 21.8 °F 30.9 °F 88% 29.79 in - NNW 24.2 mph 32.2 mph N/A   Overcast
9:15 AM 34.3 °F 23.2 °F 30.2 °F 85% 29.81 in - NNW 19.6 mph 26.5 mph N/A   Overcast
9:35 AM 33.8 °F 22.8 °F 28.4 °F 81% 29.83 in - NNW 18.4 mph 26.5 mph N/A   Overcast
9:55 AM 34.0 °F 23.8 °F 28.4 °F 80% 29.85 in - NNW 16.1 mph 31.1 mph N/A   Overcast
10:15 AM 33.8 °F 23.5 °F 27.3 °F 77% 29.86 in - NNW 16.1 mph 24.2 mph N/A   Overcast
10:35 AM 34.0 °F 23.8 °F 26.8 °F 75% 29.87 in - NNW 16.1 mph 24.2 mph N/A   Overcast
10:55 AM 33.4 °F 22.7 °F 26.2 °F 75% 29.89 in - NNW 17.3 mph 28.8 mph N/A   Overcast
11:15 AM 33.8 °F 22.5 °F 25.3 °F 71% 29.90 in - NNW 19.6 mph 28.8 mph N/A   Overcast
11:35 AM 35.2 °F 25.0 °F 26.2 °F 70% 29.90 in - NNW 17.3 mph 26.5 mph N/A   Overcast
11:55 AM 35.8 °F 26.1 °F 25.7 °F 67% 29.91 in - NNW 16.1 mph 28.8 mph N/A   Overcast
12:15 PM 37.4 °F 27.5 °F 25.9 °F 63% 29.92 in - NW 18.4 mph 27.6 mph N/A   Mostly Cloudy
12:35 PM 38.5 °F 28.6 °F 27.0 °F 63% 29.93 in - NW 19.6 mph 25.3 mph N/A   Overcast
12:55 PM 37.6 °F 26.6 °F 26.1 °F 63% 29.94 in - NW 23.0 mph 28.8 mph N/A   Overcast
1:15 PM 37.8 °F 26.8 °F 25.9 °F 62% 29.95 in - NW 23.0 mph 28.8 mph N/A   Overcast
1:35 PM 37.6 °F 27.4 °F 25.2 °F 61% 29.96 in 10.0 mi NNW 19.6 mph - N/A   Overcast
1:55 PM 37.9 °F 28.9 °F 24.6 °F 59% 29.96 in 10.0 mi NNW 16.1 mph 26.5 mph N/A   Overcast
2:15 PM 37.9 °F 28.5 °F 25.0 °F 60% 29.96 in - NW 17.3 mph 24.2 mph N/A   Overcast
2:35 PM 36.0 °F 26.0 °F 26.1 °F 67% 29.96 in - NNW 17.3 mph 25.3 mph N/A   Overcast
2:55 PM 37.2 °F 27.9 °F 27.0 °F 66% 29.97 in - NW 16.1 mph - N/A   Overcast
3:15 PM 36.0 °F 27.1 °F 27.5 °F 71% 29.98 in 5.0 mi WNW 13.8 mph - N/A Snow Light Snow
3:35 PM 34.9 °F 26.2 °F 27.9 °F 76% 29.99 in - NW 12.7 mph - N/A   Overcast
3:55 PM 35.6 °F 25.5 °F 26.6 °F 70% 30.00 in - WNW 17.3 mph 23.0 mph N/A   Overcast
4:15 PM 35.6 °F 25.9 °F 26.6 °F 70% 30.01 in - NNW 16.1 mph 23.0 mph N/A   Overcast
4:35 PM 35.1 °F 26.9 °F 27.5 °F 74% 30.01 in - NW 11.5 mph - N/A   Overcast
4:55 PM 34.9 °F 26.2 °F 27.9 °F 76% 30.02 in - NW 12.7 mph - N/A Snow Light Snow
5:15 PM 33.1 °F 22.6 °F 27.7 °F 81% 30.02 in - NW 16.1 mph 26.5 mph N/A   Overcast
5:35 PM 34.2 °F 24.8 °F 26.8 °F 74% 30.03 in - NW 13.8 mph 24.2 mph N/A   Overcast
5:55 PM 34.7 °F 24.7 °F 24.3 °F 66% 30.04 in - NW 16.1 mph 23.0 mph N/A   Overcast
6:15 PM 34.7 °F 25.1 °F 23.7 °F 64% 30.04 in - WNW 15.0 mph 19.6 mph N/A   Mostly Cloudy
6:35 PM 34.7 °F 25.1 °F 22.3 °F 61% 30.05 in - NW 15.0 mph 27.6 mph N/A   Mostly Cloudy
6:55 PM 34.3 °F 23.5 °F 22.6 °F 62% 30.06 in - WNW 18.4 mph - N/A   Overcast
7:15 PM 32.9 °F 22.8 °F 25.9 °F 75% 30.08 in - NNW 15.0 mph 23.0 mph N/A   Overcast
7:35 PM 32.0 °F 22.5 °F 27.3 °F 83% 30.09 in - NNW 12.7 mph 19.6 mph N/A   Overcast
7:55 PM 32.0 °F 23.0 °F 27.9 °F 85% 30.09 in - NNW 11.5 mph - N/A   Unknown
8:15 PM 31.8 °F 25.4 °F 26.8 °F 82% 30.10 in - North 6.9 mph - N/A   Overcast
8:35 PM 31.8 °F 24.6 °F 26.1 °F 79% 30.11 in - NNW 8.1 mph - N/A   Overcast
8:55 PM 31.6 °F 26.0 °F 26.1 °F 80% 30.11 in - NNW 5.8 mph - N/A   Overcast
9:15 PM 31.5 °F 24.9 °F 26.2 °F 81% 30.12 in - North 6.9 mph - N/A Snow Light Snow
9:35 PM 31.1 °F 23.7 °F 26.4 °F 83% 30.12 in - North 8.1 mph - N/A   Overcast
9:55 PM 30.7 °F 26.0 °F 25.5 °F 81% 30.13 in - NNW 4.6 mph - N/A   Overcast
10:15 PM 30.7 °F 27.3 °F 25.5 °F 81% 30.13 in 5.0 mi North 3.5 mph - N/A Snow Light Snow
10:35 PM 30.6 °F 24.7 °F 24.4 °F 78% 30.13 in 10.0 mi NNW 5.8 mph - N/A   Overcast
10:55 PM 29.7 °F 23.7 °F 23.7 °F 79% 30.13 in 10.0 mi NW 5.8 mph - N/A   Scattered Clouds
11:15 PM 28.2 °F 23.1 °F 23.0 °F 81% 30.13 in 10.0 mi NW 4.6 mph - N/A   Scattered Clouds
11:35 PM 27.5 °F 22.2 °F 23.4 °F 84% 30.13 in - WNW 4.6 mph - N/A   Mostly Cloudy
11:55 PM 28.0 °F - 24.4 °F 86% 30.13 in 10.0 mi Calm Calm - N/A   Mostly Cloudy